Time;durP1;ratioP1;P1;durP2;ratioP2;P2;SDS_P1;SDS_P2;PMS_P1;PMS_P2;Temp;Humidity;BMP_temperature;BMP_pressure;BME280_temperature;BME280_humidity;BME280_pressure;Samples;Min_cycle;Max_cycle;Signal;HPM_P1;HPM_P2
2023/04/26 00:00:13;;;;;;;;;;;3.60;99.90;;;;;;5065865;28;19941;-78
2023/04/26 00:02:39;;;;;;;;;;;3.60;99.90;;;;;;5069708;28;19932;-78
2023/04/26 00:05:06;;;;;;;;;;;3.70;99.90;;;;;;5070851;28;19928;-78
2023/04/26 00:07:31;;;;;;;;;;;3.60;99.90;;;;;;5069952;28;19963;-78
2023/04/26 00:09:57;;;;;;;;;;;3.60;99.90;;;;;;5072363;28;19993;-78
2023/04/26 00:12:23;;;;;;;;;;;3.60;99.90;;;;;;5071015;28;19936;-78
2023/04/26 00:14:48;;;;;;;;;;;3.50;99.90;;;;;;5068276;28;19928;-78
2023/04/26 00:17:14;;;;;;;;;;;3.50;99.90;;;;;;5051633;28;19932;-78
2023/04/26 00:19:40;;;;;;;;;;;3.50;99.90;;;;;;5073118;28;21756;-77
2023/04/26 00:22:07;;;;;;;;;;;3.40;99.90;;;;;;5073659;28;19925;-78
2023/04/26 00:24:33;;;;;;;;;;;3.40;99.90;;;;;;5074437;28;19932;-78
2023/04/26 00:26:59;;;;;;;;;;;3.40;99.90;;;;;;5075172;28;19935;-78
2023/04/26 00:29:25;;;;;;;;;;;3.40;99.90;;;;;;5068412;28;20342;-77
2023/04/26 00:31:50;;;;;;;;;;;3.30;99.90;;;;;;5074101;28;19932;-78
2023/04/26 00:34:16;;;;;;;;;;;3.30;99.90;;;;;;5073166;28;20019;-78
2023/04/26 00:36:42;;;;;;;;;;;3.30;99.90;;;;;;5068599;28;19931;-78
2023/04/26 00:39:08;;;;;;;;;;;3.30;99.90;;;;;;5073150;28;19932;-78
2023/04/26 00:41:34;;;;;;;;;;;3.20;99.90;;;;;;5069557;28;20369;-78
2023/04/26 00:43:59;;;;;;;;;;;3.20;99.90;;;;;;5068875;28;19985;-78
2023/04/26 00:46:27;;;;;;;;;;;3.20;99.90;;;;;;5070047;28;19973;-78
2023/04/26 00:48:53;;;;;;;;;;;3.20;99.90;;;;;;5056723;28;20013;-78
2023/04/26 00:51:19;;;;;;;;;;;3.20;99.90;;;;;;5065994;28;20647;-78
2023/04/26 00:53:44;;;;;;;;;;;3.20;99.90;;;;;;5069624;28;19935;-78
2023/04/26 00:56:11;;;;;;;;;;;3.20;99.90;;;;;;5063782;28;19988;-78
2023/04/26 00:58:37;;;;;;;;;;;3.20;99.90;;;;;;5068796;28;20896;-78
2023/04/26 01:01:02;;;;;;;;;;;3.40;99.90;;;;;;5063978;28;19932;-78
2023/04/26 01:03:28;;;;;;;;;;;3.30;99.90;;;;;;5067775;28;19932;-78
2023/04/26 01:05:54;;;;;;;;;;;3.40;99.90;;;;;;5073199;28;19929;-78
2023/04/26 01:08:20;;;;;;;;;;;3.40;99.90;;;;;;5071296;28;20025;-78
2023/04/26 01:10:47;;;;;;;;;;;3.50;99.90;;;;;;5067842;28;20018;-78
2023/04/26 01:13:13;;;;;;;;;;;3.50;99.90;;;;;;5067675;28;20362;-78
2023/04/26 01:15:42;;;;;;;;;;;3.60;99.90;;;;;;5065169;28;19924;-78
2023/04/26 01:18:07;;;;;;;;;;;3.70;99.90;;;;;;5070037;28;19935;-79
2023/04/26 01:20:33;;;;;;;;;;;3.70;99.90;;;;;;5068959;28;19930;-78
2023/04/26 01:22:59;;;;;;;;;;;3.80;99.90;;;;;;5067372;28;19928;-78
2023/04/26 01:25:25;;;;;;;;;;;3.70;99.90;;;;;;5070012;28;20459;-78
2023/04/26 01:27:50;;;;;;;;;;;3.80;99.90;;;;;;5072491;28;20027;-78
2023/04/26 01:30:16;;;;;;;;;;;3.80;99.90;;;;;;5070979;28;19947;-78
2023/04/26 01:32:41;;;;;;;;;;;3.90;99.90;;;;;;5070573;28;20566;-78
2023/04/26 01:35:07;;;;;;;;;;;3.90;99.90;;;;;;5070796;28;19932;-78
2023/04/26 01:37:33;;;;;;;;;;;3.90;99.90;;;;;;5064914;28;21142;-79
2023/04/26 01:39:58;;;;;;;;;;;3.90;99.90;;;;;;5071832;28;19928;-78
2023/04/26 01:42:24;;;;;;;;;;;3.90;99.90;;;;;;5069631;28;19928;-78
2023/04/26 01:44:50;;;;;;;;;;;4.00;99.90;;;;;;5062330;28;19924;-78
2023/04/26 01:47:15;;;;;;;;;;;4.00;99.90;;;;;;5067462;28;19928;-78
2023/04/26 01:49:41;;;;;;;;;;;4.00;99.90;;;;;;5069181;28;20486;-78
2023/04/26 01:52:07;;;;;;;;;;;4.00;99.90;;;;;;5070534;28;20361;-78
2023/04/26 01:54:32;;;;;;;;;;;4.00;99.90;;;;;;5069703;28;19932;-78
2023/04/26 01:56:58;;;;;;;;;;;4.00;99.90;;;;;;5071134;28;20046;-78
2023/04/26 01:59:23;;;;;;;;;;;4.10;99.90;;;;;;5073440;28;19924;-78
2023/04/26 02:01:49;;;;;;;;;;;4.00;99.90;;;;;;5068713;28;19928;-78
2023/04/26 02:04:15;;;;;;;;;;;4.00;99.90;;;;;;5066201;28;20022;-78
2023/04/26 02:06:41;;;;;;;;;;;4.00;99.90;;;;;;5075252;28;19939;-78
2023/04/26 02:09:08;;;;;;;;;;;4.00;99.90;;;;;;5068475;28;20131;-78
2023/04/26 02:11:34;;;;;;;;;;;3.90;99.90;;;;;;5071381;28;20419;-77
2023/04/26 02:14:00;;;;;;;;;;;3.80;99.90;;;;;;5070329;28;19928;-78
2023/04/26 02:16:25;;;;;;;;;;;3.80;99.90;;;;;;5076119;28;20377;-78
2023/04/26 02:18:52;;;;;;;;;;;3.70;99.90;;;;;;5075279;28;19924;-78
2023/04/26 02:21:18;;;;;;;;;;;3.70;99.90;;;;;;5070927;28;20416;-78
2023/04/26 02:23:44;;;;;;;;;;;3.60;99.90;;;;;;5078032;28;19935;-78
2023/04/26 02:26:10;;;;;;;;;;;3.50;99.90;;;;;;5068449;28;19928;-78
2023/04/26 02:28:36;;;;;;;;;;;3.40;99.90;;;;;;5067815;28;19932;-78
2023/04/26 02:31:02;;;;;;;;;;;3.40;99.90;;;;;;5065424;28;20444;-78
2023/04/26 02:33:28;;;;;;;;;;;3.30;99.90;;;;;;5069549;28;19932;-78
2023/04/26 02:35:53;;;;;;;;;;;3.20;99.90;;;;;;5069420;28;19981;-78
2023/04/26 02:38:19;;;;;;;;;;;3.30;99.90;;;;;;5068221;28;20380;-78
2023/04/26 02:40:45;;;;;;;;;;;3.30;99.90;;;;;;5068151;28;19983;-78
2023/04/26 02:43:10;;;;;;;;;;;3.30;99.90;;;;;;5072671;28;19979;-78
2023/04/26 02:45:40;;;;;;;;;;;3.30;99.90;;;;;;5068613;28;19928;-78
2023/04/26 02:48:05;;;;;;;;;;;3.20;99.90;;;;;;5073376;28;20528;-78
2023/04/26 02:50:31;;;;;;;;;;;3.30;99.90;;;;;;5071200;28;20001;-78
2023/04/26 02:52:56;;;;;;;;;;;3.30;99.90;;;;;;5072938;28;19928;-77
2023/04/26 02:55:22;;;;;;;;;;;3.30;99.90;;;;;;5070733;28;19928;-78
2023/04/26 02:57:47;;;;;;;;;;;3.30;99.90;;;;;;5073487;28;19925;-78
2023/04/26 03:00:13;;;;;;;;;;;3.40;99.90;;;;;;5073015;28;19932;-78
2023/04/26 03:02:38;;;;;;;;;;;3.40;99.90;;;;;;5076542;28;19963;-78
2023/04/26 03:05:04;;;;;;;;;;;3.40;99.90;;;;;;5075191;28;19928;-78
2023/04/26 03:07:30;;;;;;;;;;;3.40;99.90;;;;;;5071936;28;20390;-78
2023/04/26 03:09:56;;;;;;;;;;;3.40;99.90;;;;;;5078355;28;19938;-78
2023/04/26 03:12:22;;;;;;;;;;;3.40;99.90;;;;;;5077921;28;19935;-78
2023/04/26 03:14:47;;;;;;;;;;;3.30;99.90;;;;;;5074965;28;19932;-78
2023/04/26 03:17:13;;;;;;;;;;;3.30;99.90;;;;;;5072740;28;19938;-79
2023/04/26 03:19:38;;;;;;;;;;;3.20;99.90;;;;;;5075953;28;20008;-78
2023/04/26 03:22:04;;;;;;;;;;;3.20;99.90;;;;;;5073760;28;20074;-79
2023/04/26 03:24:30;;;;;;;;;;;3.20;99.90;;;;;;5071206;28;19939;-79
2023/04/26 03:26:56;;;;;;;;;;;3.20;99.90;;;;;;5076976;28;20007;-79
2023/04/26 03:29:22;;;;;;;;;;;3.20;99.90;;;;;;5071097;28;19995;-79
2023/04/26 03:31:47;;;;;;;;;;;3.10;99.90;;;;;;5078264;28;19981;-78
2023/04/26 03:34:13;;;;;;;;;;;3.20;99.90;;;;;;5075123;28;20493;-79
2023/04/26 03:36:38;;;;;;;;;;;3.10;99.90;;;;;;5071739;28;19975;-78
2023/04/26 03:39:05;;;;;;;;;;;3.10;99.90;;;;;;5054690;28;19939;-79
2023/04/26 03:41:32;;;;;;;;;;;3.10;99.90;;;;;;5074078;28;19934;-79
2023/04/26 03:43:57;;;;;;;;;;;3.10;99.90;;;;;;5078038;28;20458;-79
2023/04/26 03:46:23;;;;;;;;;;;3.10;99.90;;;;;;5073786;28;19932;-79
2023/04/26 03:48:48;;;;;;;;;;;3.00;99.90;;;;;;5074015;28;19932;-79
2023/04/26 03:51:14;;;;;;;;;;;3.00;99.90;;;;;;5070545;28;20043;-79
2023/04/26 03:53:40;;;;;;;;;;;2.90;99.90;;;;;;5072987;28;19939;-78
2023/04/26 03:56:06;;;;;;;;;;;2.90;99.90;;;;;;5078499;28;19969;-78
2023/04/26 03:58:32;;;;;;;;;;;2.90;99.90;;;;;;5075076;28;20523;-78
2023/04/26 04:00:57;;;;;;;;;;;2.80;99.90;;;;;;5070284;28;20464;-78
2023/04/26 04:03:23;;;;;;;;;;;2.90;99.90;;;;;;5073606;28;19963;-78
2023/04/26 04:05:48;;;;;;;;;;;2.90;99.90;;;;;;5072776;28;20289;-78
2023/04/26 04:08:14;;;;;;;;;;;2.80;99.90;;;;;;5071168;28;19924;-78
2023/04/26 04:10:41;;;;;;;;;;;2.80;99.90;;;;;;5075899;28;19928;-79
2023/04/26 04:13:07;;;;;;;;;;;2.80;99.90;;;;;;5070914;28;19928;-78
2023/04/26 04:15:32;;;;;;;;;;;2.70;99.90;;;;;;5068980;28;19928;-78
2023/04/26 04:17:58;;;;;;;;;;;2.70;99.90;;;;;;5073531;28;19928;-78
2023/04/26 04:20:24;;;;;;;;;;;2.70;99.90;;;;;;5070872;28;20389;-78
2023/04/26 04:22:50;;;;;;;;;;;2.70;99.90;;;;;;5076219;28;19927;-78
2023/04/26 04:25:15;;;;;;;;;;;2.80;99.90;;;;;;5074725;28;19928;-78
2023/04/26 04:27:44;;;;;;;;;;;2.70;99.90;;;;;;5071574;28;20385;-79
2023/04/26 04:30:10;;;;;;;;;;;2.60;99.90;;;;;;5072621;28;20397;-78
2023/04/26 04:32:38;;;;;;;;;;;2.70;99.90;;;;;;5077617;28;19931;-79
2023/04/26 04:35:04;;;;;;;;;;;2.70;99.90;;;;;;5074843;28;20031;-79
2023/04/26 04:37:32;;;;;;;;;;;2.80;99.90;;;;;;5076655;28;19943;-79
2023/04/26 04:39:58;;;;;;;;;;;2.80;99.90;;;;;;5071486;28;19964;-78
2023/04/26 04:42:25;;;;;;;;;;;2.80;99.90;;;;;;5070871;28;20015;-78
2023/04/26 04:44:51;;;;;;;;;;;2.90;99.90;;;;;;5074344;28;19924;-79
2023/04/26 04:47:17;;;;;;;;;;;3.00;99.90;;;;;;5067282;28;19935;-78
2023/04/26 04:49:42;;;;;;;;;;;3.20;99.90;;;;;;5072382;28;20013;-78
2023/04/26 04:52:08;;;;;;;;;;;3.40;99.90;;;;;;5067630;28;19928;-78
2023/04/26 04:54:33;;;;;;;;;;;3.60;99.90;;;;;;5068505;28;19935;-78
2023/04/26 04:57:00;;;;;;;;;;;3.60;99.90;;;;;;5073329;28;19958;-78
2023/04/26 04:59:25;;;;;;;;;;;4.20;99.90;;;;;;5073213;28;19982;-79
2023/04/26 05:01:51;;;;;;;;;;;5.40;99.90;;;;;;5072505;28;19928;-78
2023/04/26 05:04:17;;;;;;;;;;;6.40;99.90;;;;;;5070428;28;20327;-78
2023/04/26 05:06:42;;;;;;;;;;;7.30;99.90;;;;;;5067110;28;19939;-78
2023/04/26 05:09:08;;;;;;;;;;;8.00;99.90;;;;;;5073427;28;20456;-79
2023/04/26 05:11:33;;;;;;;;;;;8.60;99.90;;;;;;5072273;28;19940;-78
2023/04/26 05:13:59;;;;;;;;;;;9.20;99.90;;;;;;5072559;28;19935;-78
2023/04/26 05:16:25;;;;;;;;;;;9.40;99.90;;;;;;5074309;28;19935;-79
2023/04/26 05:18:50;;;;;;;;;;;9.60;99.90;;;;;;5055608;28;19928;-79
2023/04/26 05:21:16;;;;;;;;;;;9.60;99.90;;;;;;5071361;28;19981;-79
2023/04/26 05:23:42;;;;;;;;;;;9.00;99.90;;;;;;5070795;28;19935;-79
2023/04/26 05:26:09;;;;;;;;;;;9.90;99.90;;;;;;5072518;28;19939;-79
2023/04/26 05:28:34;;;;;;;;;;;10.40;99.90;;;;;;5075283;28;19932;-79
2023/04/26 05:31:00;;;;;;;;;;;11.00;99.90;;;;;;5070769;28;20293;-79
2023/04/26 05:33:27;;;;;;;;;;;11.30;99.90;;;;;;5075541;28;20266;-79
2023/04/26 05:35:53;;;;;;;;;;;11.40;99.90;;;;;;5067646;28;19935;-79
2023/04/26 05:38:19;;;;;;;;;;;11.70;99.90;;;;;;5073085;28;19928;-79
2023/04/26 05:40:47;;;;;;;;;;;12.00;99.90;;;;;;5072148;28;19928;-79
2023/04/26 05:43:12;;;;;;;;;;;12.10;99.90;;;;;;5074326;28;20616;-79
2023/04/26 05:45:38;;;;;;;;;;;11.40;99.90;;;;;;5073554;28;19932;-80
2023/04/26 05:48:04;;;;;;;;;;;9.80;99.90;;;;;;5074735;28;19928;-79
2023/04/26 05:50:30;;;;;;;;;;;8.60;99.90;;;;;;5070330;28;19932;-79
2023/04/26 05:52:55;;;;;;;;;;;8.50;99.90;;;;;;5069097;28;19928;-80
2023/04/26 05:55:21;;;;;;;;;;;8.10;99.90;;;;;;5072636;28;20703;-80
2023/04/26 05:57:47;;;;;;;;;;;8.10;99.90;;;;;;5065555;28;20299;-78
2023/04/26 06:00:12;;;;;;;;;;;8.20;99.90;;;;;;5072176;28;20413;-78
2023/04/26 06:02:38;;;;;;;;;;;8.10;99.90;;;;;;5070399;28;20009;-79
2023/04/26 06:05:05;;;;;;;;;;;8.20;99.90;;;;;;5056198;28;20008;-79
2023/04/26 06:07:31;;;;;;;;;;;8.00;99.90;;;;;;5068059;28;20027;-78
2023/04/26 06:09:56;;;;;;;;;;;7.90;99.90;;;;;;5075308;28;20342;-79
2023/04/26 06:12:22;;;;;;;;;;;7.90;99.90;;;;;;5073807;28;19928;-80
2023/04/26 06:14:47;;;;;;;;;;;8.20;99.90;;;;;;5072242;28;19975;-80
2023/04/26 06:17:13;;;;;;;;;;;8.50;99.90;;;;;;5066962;28;20008;-79
2023/04/26 06:19:39;;;;;;;;;;;8.40;99.90;;;;;;5068228;28;19944;-79
2023/04/26 06:22:04;;;;;;;;;;;8.60;99.90;;;;;;5068301;28;20415;-79
2023/04/26 06:24:30;;;;;;;;;;;9.00;99.90;;;;;;5071021;28;19932;-79
2023/04/26 06:26:56;;;;;;;;;;;8.70;99.90;;;;;;5069564;28;19929;-78
2023/04/26 06:29:21;;;;;;;;;;;8.50;99.90;;;;;;5069837;28;20484;-79
2023/04/26 06:31:47;;;;;;;;;;;8.20;99.90;;;;;;5068006;28;20442;-78
2023/04/26 06:34:12;;;;;;;;;;;8.30;99.90;;;;;;5071255;28;19940;-79
2023/04/26 06:36:38;;;;;;;;;;;8.30;99.90;;;;;;5072092;28;19924;-78
2023/04/26 06:39:03;;;;;;;;;;;8.50;99.90;;;;;;5077265;28;20563;-79
2023/04/26 06:41:30;;;;;;;;;;;8.60;99.90;;;;;;5071628;28;19935;-79
2023/04/26 06:43:55;;;;;;;;;;;8.50;99.90;;;;;;5076884;28;20521;-79
2023/04/26 06:46:21;;;;;;;;;;;8.60;99.90;;;;;;5074461;28;19981;-79
2023/04/26 06:48:46;;;;;;;;;;;8.50;99.90;;;;;;5075025;28;19929;-79
2023/04/26 06:51:12;;;;;;;;;;;8.70;99.90;;;;;;5075492;28;19963;-79
2023/04/26 06:53:38;;;;;;;;;;;8.80;99.90;;;;;;5074372;28;19932;-79
2023/04/26 06:56:04;;;;;;;;;;;8.70;99.90;;;;;;5074871;28;19928;-79
2023/04/26 06:58:29;;;;;;;;;;;8.50;99.90;;;;;;5073424;28;19958;-79
2023/04/26 07:00:55;;;;;;;;;;;8.40;99.90;;;;;;5075349;28;19928;-79
2023/04/26 07:03:20;;;;;;;;;;;8.30;99.90;;;;;;5070854;28;19925;-79
2023/04/26 07:05:46;;;;;;;;;;;8.50;99.90;;;;;;5070722;28;20282;-78
2023/04/26 07:08:11;;;;;;;;;;;8.60;99.90;;;;;;5074260;28;19935;-78
2023/04/26 07:10:40;;;;;;;;;;;9.10;99.90;;;;;;5073865;28;19932;-79
2023/04/26 07:13:06;;;;;;;;;;;9.30;99.90;;;;;;5057379;28;19924;-79
2023/04/26 07:15:32;;;;;;;;;;;9.50;99.90;;;;;;5077006;28;19932;-79
2023/04/26 07:17:57;;;;;;;;;;;9.60;99.90;;;;;;5072883;28;20052;-80
2023/04/26 07:20:23;;;;;;;;;;;9.70;99.90;;;;;;5072945;28;20423;-79
2023/04/26 07:22:49;;;;;;;;;;;9.80;99.90;;;;;;5074504;28;20032;-79
2023/04/26 07:25:15;;;;;;;;;;;9.90;99.90;;;;;;5072050;28;20436;-79
2023/04/26 07:27:41;;;;;;;;;;;10.40;99.90;;;;;;5076713;28;19928;-79
2023/04/26 07:30:07;;;;;;;;;;;10.00;99.90;;;;;;5071466;28;19959;-79
2023/04/26 07:32:33;;;;;;;;;;;10.00;99.90;;;;;;5073181;28;20359;-80
2023/04/26 07:34:58;;;;;;;;;;;10.30;99.90;;;;;;5072174;28;20023;-80
2023/04/26 07:37:24;;;;;;;;;;;10.10;99.90;;;;;;5074944;28;19971;-79
2023/04/26 07:39:49;;;;;;;;;;;10.30;99.90;;;;;;5072542;28;19939;-79
2023/04/26 07:42:15;;;;;;;;;;;10.40;99.90;;;;;;5071797;28;19932;-79
2023/04/26 07:44:41;;;;;;;;;;;10.50;99.90;;;;;;5075215;28;19928;-80
2023/04/26 07:47:13;;;;;;;;;;;10.30;99.90;;;;;;5068741;28;20392;-79
2023/04/26 07:49:38;;;;;;;;;;;10.20;99.90;;;;;;5072893;28;20394;-78
2023/04/26 07:52:04;;;;;;;;;;;10.30;99.90;;;;;;5071869;28;19935;-79
2023/04/26 07:54:30;;;;;;;;;;;10.40;99.90;;;;;;5074300;28;19970;-80
2023/04/26 07:56:56;;;;;;;;;;;10.80;99.90;;;;;;5073382;28;19932;-79
2023/04/26 07:59:22;;;;;;;;;;;10.90;99.90;;;;;;5072594;28;20391;-78
2023/04/26 08:01:48;;;;;;;;;;;10.30;99.90;;;;;;5069076;28;19936;-79
2023/04/26 08:04:13;;;;;;;;;;;10.10;99.90;;;;;;5060070;28;20012;-80
2023/04/26 08:06:43;;;;;;;;;;;10.10;99.90;;;;;;5040564;28;19928;-79
2023/04/26 08:09:10;;;;;;;;;;;10.30;99.90;;;;;;5064862;28;19928;-78
2023/04/26 08:11:35;;;;;;;;;;;10.20;99.90;;;;;;5063458;28;19936;-80
2023/04/26 08:14:01;;;;;;;;;;;10.20;99.90;;;;;;5071849;28;19928;-80
2023/04/26 08:16:30;;;;;;;;;;;9.90;99.90;;;;;;5070231;28;19935;-80
2023/04/26 08:19:01;;;;;;;;;;;10.00;99.90;;;;;;5072721;28;19924;-79
2023/04/26 08:21:26;;;;;;;;;;;10.00;99.90;;;;;;5072248;28;19941;-78
2023/04/26 08:23:52;;;;;;;;;;;9.90;99.90;;;;;;5072885;28;19928;-79
2023/04/26 08:26:18;;;;;;;;;;;10.10;99.90;;;;;;5067537;28;20306;-79
2023/04/26 08:28:43;;;;;;;;;;;10.20;99.90;;;;;;5067311;28;19934;-79
2023/04/26 08:31:09;;;;;;;;;;;10.20;99.90;;;;;;5072201;28;20022;-79
2023/04/26 08:33:34;;;;;;;;;;;10.70;99.90;;;;;;5073083;28;19938;-79
2023/04/26 08:36:00;;;;;;;;;;;10.90;99.90;;;;;;5070468;28;20383;-79
2023/04/26 08:38:26;;;;;;;;;;;10.80;99.90;;;;;;5075306;28;20389;-79
2023/04/26 08:40:54;;;;;;;;;;;11.10;99.90;;;;;;5069309;28;19935;-78
2023/04/26 08:43:20;;;;;;;;;;;11.10;99.90;;;;;;5052149;28;19962;-79
2023/04/26 08:45:46;;;;;;;;;;;11.70;99.90;;;;;;5072010;28;20436;-79
2023/04/26 08:48:14;;;;;;;;;;;11.70;99.90;;;;;;5070299;28;20472;-79
2023/04/26 08:50:41;;;;;;;;;;;11.90;99.90;;;;;;5071777;28;19967;-79
2023/04/26 08:53:08;;;;;;;;;;;12.40;99.90;;;;;;5073713;28;19951;-79
2023/04/26 08:55:34;;;;;;;;;;;12.60;99.90;;;;;;5067957;28;20393;-79
2023/04/26 08:58:00;;;;;;;;;;;12.20;99.90;;;;;;5073514;28;19924;-80
2023/04/26 09:00:26;;;;;;;;;;;12.20;99.90;;;;;;5071930;28;20337;-79
2023/04/26 09:02:51;;;;;;;;;;;12.30;99.90;;;;;;5062261;28;20858;-78
2023/04/26 09:05:22;;;;;;;;;;;12.20;99.90;;;;;;5054597;28;20055;-79
2023/04/26 09:07:55;;;;;;;;;;;11.20;99.90;;;;;;5054626;28;19988;-79
2023/04/26 09:10:21;;;;;;;;;;;10.90;99.90;;;;;;5055427;28;19928;-79
2023/04/26 09:12:50;;;;;;;;;;;10.60;99.90;;;;;;5049503;28;19954;-79
2023/04/26 09:15:16;;;;;;;;;;;10.30;99.90;;;;;;5050655;28;19963;-79
2023/04/26 09:17:41;;;;;;;;;;;10.00;99.90;;;;;;5052913;28;20460;-79
2023/04/26 09:20:18;;;;;;;;;;;9.70;99.90;;;;;;5065076;28;19936;-79
2023/04/26 09:22:44;;;;;;;;;;;9.60;99.90;;;;;;5065531;28;20482;-79
2023/04/26 09:25:12;;;;;;;;;;;9.50;99.90;;;;;;5074123;28;19928;-80
2023/04/26 09:27:39;;;;;;;;;;;9.50;99.90;;;;;;5067479;28;19932;-79
2023/04/26 09:30:08;;;;;;;;;;;9.40;99.90;;;;;;5067516;28;20031;-79
2023/04/26 09:32:54;;;;;;;;;;;9.30;99.90;;;;;;5069050;28;19932;-78
2023/04/26 09:35:40;;;;;;;;;;;9.30;99.90;;;;;;5069516;28;19973;-79
2023/04/26 09:38:13;;;;;;;;;;;9.20;99.90;;;;;;5048866;28;20022;-80
2023/04/26 09:40:44;;;;;;;;;;;9.40;99.90;;;;;;5068908;28;19932;-79
2023/04/26 09:43:12;;;;;;;;;;;9.40;99.90;;;;;;5071361;28;20324;-78
2023/04/26 09:45:43;;;;;;;;;;;9.30;99.90;;;;;;5072576;28;19972;-79
2023/04/26 09:48:21;;;;;;;;;;;9.20;99.90;;;;;;5071499;28;20652;-79
2023/04/26 09:50:47;;;;;;;;;;;9.20;99.90;;;;;;5068262;28;19971;-79
2023/04/26 09:53:33;;;;;;;;;;;9.30;99.90;;;;;;5068811;28;19935;-78
2023/04/26 09:56:08;;;;;;;;;;;9.40;99.90;;;;;;5068905;28;19938;-79
2023/04/26 09:58:35;;;;;;;;;;;9.60;99.90;;;;;;5069050;28;20022;-78
2023/04/26 10:01:01;;;;;;;;;;;9.80;99.90;;;;;;5071225;28;19981;-79
2023/04/26 10:03:28;;;;;;;;;;;10.10;99.90;;;;;;5069813;28;19931;-79
2023/04/26 10:05:53;;;;;;;;;;;10.30;99.90;;;;;;5063420;28;19951;-79
2023/04/26 10:08:19;;;;;;;;;;;10.30;99.90;;;;;;5067484;28;20424;-78
2023/04/26 10:10:46;;;;;;;;;;;10.40;99.90;;;;;;5062391;28;19989;-79
2023/04/26 10:13:12;;;;;;;;;;;11.00;99.90;;;;;;5073158;28;19975;-79
2023/04/26 10:15:39;;;;;;;;;;;11.10;99.90;;;;;;5071078;28;19963;-80
2023/04/26 10:18:05;;;;;;;;;;;11.10;99.90;;;;;;5066373;28;19935;-79
2023/04/26 10:20:31;;;;;;;;;;;11.00;99.90;;;;;;5066695;28;19928;-78
2023/04/26 10:23:00;;;;;;;;;;;11.10;99.90;;;;;;5074915;28;20270;-80
2023/04/26 10:25:35;;;;;;;;;;;11.70;99.90;;;;;;5064656;28;19928;-79
2023/04/26 10:28:02;;;;;;;;;;;11.90;99.90;;;;;;5069821;28;20436;-78
2023/04/26 10:30:28;;;;;;;;;;;12.10;99.90;;;;;;5052829;28;20039;-79
2023/04/26 10:32:53;;;;;;;;;;;12.70;99.90;;;;;;5066968;28;19927;-80
2023/04/26 10:35:20;;;;;;;;;;;12.20;99.90;;;;;;5063160;28;19975;-79
2023/04/26 10:37:58;;;;;;;;;;;11.50;99.90;;;;;;5040264;28;19929;-80
2023/04/26 10:40:28;;;;;;;;;;;11.50;99.90;;;;;;5053690;28;19933;-80
2023/04/26 10:43:15;;;;;;;;;;;11.00;99.90;;;;;;5050012;28;19940;-79
2023/04/26 10:45:41;;;;;;;;;;;10.90;99.90;;;;;;5060956;28;19935;-79
2023/04/26 10:48:12;;;;;;;;;;;10.60;99.90;;;;;;5055122;28;19932;-78
2023/04/26 10:50:56;;;;;;;;;;;10.60;99.90;;;;;;5060401;28;20771;-80
2023/04/26 10:53:29;;;;;;;;;;;11.40;99.90;;;;;;5057295;28;19928;-79
2023/04/26 10:55:54;;;;;;;;;;;12.10;99.90;;;;;;5054510;28;19936;-79
2023/04/26 10:58:29;;;;;;;;;;;12.80;99.90;;;;;;5056597;28;19932;-78
2023/04/26 11:01:14;;;;;;;;;;;13.10;99.90;;;;;;5063383;28;19935;-79
2023/04/26 11:03:41;;;;;;;;;;;12.70;99.90;;;;;;5065080;28;19935;-79
2023/04/26 11:06:08;;;;;;;;;;;12.40;99.90;;;;;;5056785;28;19986;-80
2023/04/26 11:08:35;;;;;;;;;;;12.90;99.90;;;;;;5066388;28;20431;-78
2023/04/26 11:11:01;;;;;;;;;;;13.10;99.90;;;;;;5060137;28;20009;-79
2023/04/26 11:13:29;;;;;;;;;;;13.40;99.90;;;;;;5070020;28;19932;-79
2023/04/26 11:15:59;;;;;;;;;;;12.90;99.90;;;;;;5067935;28;19928;-79
2023/04/26 11:18:25;;;;;;;;;;;12.50;99.90;;;;;;5067635;28;20019;-79
2023/04/26 11:20:50;;;;;;;;;;;11.90;99.90;;;;;;5064768;28;19925;-78
2023/04/26 11:23:17;;;;;;;;;;;11.50;99.90;;;;;;5068831;28;19928;-79
2023/04/26 11:25:42;;;;;;;;;;;11.00;99.90;;;;;;5058596;28;19934;-79
2023/04/26 11:28:08;;;;;;;;;;;9.90;99.90;;;;;;5059971;28;19935;-78
2023/04/26 11:30:34;;;;;;;;;;;9.70;99.90;;;;;;5065591;28;19925;-79
2023/04/26 11:33:00;;;;;;;;;;;9.50;99.90;;;;;;5071690;28;19928;-78
2023/04/26 11:35:26;;;;;;;;;;;9.20;99.90;;;;;;5072087;28;19954;-79
2023/04/26 11:37:52;;;;;;;;;;;9.20;99.90;;;;;;5059575;28;19967;-79
2023/04/26 11:40:18;;;;;;;;;;;9.00;99.90;;;;;;5063302;28;20004;-79
2023/04/26 11:42:43;;;;;;;;;;;9.00;99.90;;;;;;5065060;28;20725;-80
2023/04/26 11:45:09;;;;;;;;;;;8.90;99.90;;;;;;5063158;28;20035;-78
2023/04/26 11:47:35;;;;;;;;;;;8.90;99.90;;;;;;5071174;28;19924;-79
2023/04/26 11:50:02;;;;;;;;;;;9.00;99.90;;;;;;5057970;28;19928;-79
2023/04/26 11:52:28;;;;;;;;;;;9.00;99.90;;;;;;5065122;28;19972;-79
2023/04/26 11:55:02;;;;;;;;;;;9.00;99.90;;;;;;5067889;28;19932;-79
2023/04/26 11:57:29;;;;;;;;;;;8.90;99.90;;;;;;5064924;28;20736;-79
2023/04/26 12:00:07;;;;;;;;;;;9.00;99.90;;;;;;5067740;28;19960;-79
2023/04/26 12:02:34;;;;;;;;;;;9.10;99.90;;;;;;5066553;28;19972;-78
2023/04/26 12:05:00;;;;;;;;;;;9.10;99.90;;;;;;5064863;28;20020;-79
2023/04/26 12:07:26;;;;;;;;;;;9.40;99.90;;;;;;5059248;28;19973;-79
2023/04/26 12:09:51;;;;;;;;;;;9.60;99.90;;;;;;5065735;28;19932;-79
2023/04/26 12:12:17;;;;;;;;;;;9.70;99.90;;;;;;5071710;28;19928;-79
2023/04/26 12:14:44;;;;;;;;;;;9.70;99.90;;;;;;5073926;28;19928;-79
2023/04/26 12:17:10;;;;;;;;;;;9.80;99.90;;;;;;5071764;28;19935;-79
2023/04/26 12:19:36;;;;;;;;;;;9.90;99.90;;;;;;5071178;28;20037;-79
2023/04/26 12:22:02;;;;;;;;;;;10.00;99.90;;;;;;5066817;28;19997;-79
2023/04/26 12:24:29;;;;;;;;;;;10.10;99.90;;;;;;5070731;28;19940;-79
2023/04/26 12:26:55;;;;;;;;;;;10.30;99.90;;;;;;5073215;28;20007;-79
2023/04/26 12:29:20;;;;;;;;;;;10.50;99.90;;;;;;5068605;28;19932;-79
2023/04/26 12:31:46;;;;;;;;;;;10.50;99.90;;;;;;5073706;28;19928;-78
2023/04/26 12:34:11;;;;;;;;;;;10.70;99.90;;;;;;5070995;28;19997;-79
2023/04/26 12:36:43;;;;;;;;;;;10.80;99.90;;;;;;5070955;28;19982;-79
2023/04/26 12:39:15;;;;;;;;;;;10.50;99.90;;;;;;5070328;28;20748;-78
2023/04/26 12:41:41;;;;;;;;;;;10.50;99.90;;;;;;5072071;28;19928;-79
2023/04/26 12:44:07;;;;;;;;;;;10.60;99.90;;;;;;5070657;28;19931;-78
2023/04/26 12:46:33;;;;;;;;;;;10.60;99.90;;;;;;5066212;28;19966;-79
2023/04/26 12:48:58;;;;;;;;;;;10.80;99.90;;;;;;5069941;28;19963;-79
2023/04/26 12:51:24;;;;;;;;;;;11.00;99.90;;;;;;5066943;28;19951;-78
2023/04/26 12:53:49;;;;;;;;;;;11.00;99.90;;;;;;5070752;28;19928;-79
2023/04/26 12:56:15;;;;;;;;;;;11.00;99.90;;;;;;5066949;28;19935;-79
2023/04/26 12:58:41;;;;;;;;;;;11.00;99.90;;;;;;5066443;28;19928;-79
2023/04/26 13:01:06;;;;;;;;;;;11.10;99.90;;;;;;5066382;28;20023;-80
2023/04/26 13:03:32;;;;;;;;;;;11.00;99.90;;;;;;5043572;28;20001;-79
2023/04/26 13:05:58;;;;;;;;;;;10.90;99.90;;;;;;5061390;28;19931;-79
2023/04/26 13:08:24;;;;;;;;;;;10.80;99.90;;;;;;5045956;28;19932;-78
2023/04/26 13:10:50;;;;;;;;;;;10.70;99.90;;;;;;5066260;28;19932;-80
2023/04/26 13:13:15;;;;;;;;;;;10.60;99.90;;;;;;5065212;28;19977;-79
2023/04/26 13:15:41;;;;;;;;;;;10.50;99.90;;;;;;5059038;28;20400;-79
2023/04/26 13:18:07;;;;;;;;;;;10.60;99.90;;;;;;5065001;28;19932;-79
2023/04/26 13:20:32;;;;;;;;;;;10.50;99.90;;;;;;5070031;28;19928;-79
2023/04/26 13:22:58;;;;;;;;;;;10.40;99.90;;;;;;5068015;28;19928;-79
2023/04/26 13:25:23;;;;;;;;;;;10.40;99.90;;;;;;5068822;28;20039;-79
2023/04/26 13:27:52;;;;;;;;;;;10.30;99.90;;;;;;5072565;28;19935;-79
2023/04/26 13:30:17;;;;;;;;;;;10.10;99.90;;;;;;5063965;28;20325;-79
2023/04/26 13:32:43;;;;;;;;;;;10.10;99.90;;;;;;5069948;28;19939;-79
2023/04/26 13:35:10;;;;;;;;;;;10.10;99.90;;;;;;5062483;28;19967;-79
2023/04/26 13:37:36;;;;;;;;;;;9.90;99.90;;;;;;5071438;28;19967;-79
2023/04/26 13:40:03;;;;;;;;;;;9.80;99.90;;;;;;5067564;28;20030;-79
2023/04/26 13:42:28;;;;;;;;;;;9.90;99.90;;;;;;5066875;28;19932;-79
2023/04/26 13:44:54;;;;;;;;;;;9.80;99.90;;;;;;5067274;28;19935;-78
2023/04/26 13:47:20;;;;;;;;;;;9.80;99.90;;;;;;5065408;28;19928;-79
2023/04/26 13:49:45;;;;;;;;;;;9.60;99.90;;;;;;5069365;28;19928;-79
2023/04/26 13:52:11;;;;;;;;;;;9.70;99.90;;;;;;5051298;28;19924;-79
2023/04/26 13:54:38;;;;;;;;;;;9.60;99.90;;;;;;5069083;28;19928;-79
2023/04/26 13:57:04;;;;;;;;;;;9.80;99.90;;;;;;5067014;28;19939;-80
2023/04/26 13:59:30;;;;;;;;;;;9.70;99.90;;;;;;5068368;28;19924;-79
2023/04/26 14:01:56;;;;;;;;;;;9.70;99.90;;;;;;5066229;28;19984;-79
2023/04/26 14:04:24;;;;;;;;;;;9.70;99.90;;;;;;5067908;28;20227;-79
2023/04/26 14:06:49;;;;;;;;;;;9.90;99.90;;;;;;5061525;28;19985;-79
2023/04/26 14:09:16;;;;;;;;;;;9.90;99.90;;;;;;5068468;28;20439;-79
2023/04/26 14:11:41;;;;;;;;;;;9.90;99.90;;;;;;5065953;28;20591;-79
2023/04/26 14:14:07;;;;;;;;;;;9.90;99.90;;;;;;5068921;28;19932;-79
2023/04/26 14:16:32;;;;;;;;;;;10.00;99.90;;;;;;5067888;28;19932;-79
2023/04/26 14:18:58;;;;;;;;;;;10.10;99.90;;;;;;5066926;28;20342;-79
2023/04/26 14:21:25;;;;;;;;;;;10.20;99.90;;;;;;5069617;28;19936;-79